ENBRENZV

Guest
Details From ENBR - Bergen Lufthavn Flesland
To ENZV - Stavanger Lufthavn Sola
Flight Number -
Tags Generated
Created
Modified
Stats Distance 86 nm / 160 km
Max Altitude 0 ft / 0 m
Waypoints 2
Social Downloads 10
Likes 0
Share VATSIM

Download

Looking for another format? Having issues loading an existing format? Contact us
Advertisement - Login to hide

Notes

Generated

Route

ENBR ENZV

ID Type Via Altitude Latitude Longitude Leg Dist Tot Dist Heading (true) Name
O ENBR APT - 0 ft / 0 m 60.30662˚ 5.21370˚ - 0 nm - -
O ENZV APT - 0 ft / 0 m 58.88179˚ 5.60479˚ 86 nm 86 nm 172° / 172° -

Altitude Profile

Advertisement - Login to hide

ENBR

Details ICAO ENBR (BGO)
Name Bergen Lufthavn Flesland
Region Norway
Timezone Europe/Oslo (UTC+1.0)
Stats Elevation 165 ft / 50 m (AMSL)
Location 60.293388° 5.218140°
Runways 1
Magnetic Variation 0.841° E

METAR

ENBR 150150Z 02002KT CAVOK M02/M03 Q0987 RMK WIND 1200FT 33007KT

Decode

TAF

TAF ENBR 142300Z 1500/1524 VRB05KT 9999 FEW012 SCT060 PROB30 1500/1505 1500 BCFG BKN002 BECMG 1504/1506 36010KT

Decode

Departure Runways

ID Width Length Bearing (true) Bearing (mag) Surface Threshold Offset Overrun Length
17 148 ft / 45 m 9,793 ft / 2,985 m 170.56° 169.72° Asphalt 886 ft / 270 m 0 ft / 0 m
35 148 ft / 45 m 9,793 ft / 2,985 m 350.57° 349.73° Asphalt 886 ft / 270 m 0 ft / 0 m

ENZV

Details ICAO ENZV (SVG)
Name Stavanger Lufthavn Sola
Region Norway
Timezone Europe/Oslo (UTC+1.0)
Stats Elevation 29 ft / 9 m (AMSL)
Location 58.880464° 5.631430°
Runways 2
Magnetic Variation 1.090° E

METAR

ENZV 150150Z 14004KT 9999 FEW040 BKN055 M01/M01 Q0987

Decode

TAF

TAF ENZV 142300Z 1500/1524 VRB07KT 9999 FEW012 SCT025 PROB30 1500/1508 1200 BCFG BKN002 BECMG 1506/1508 35012KT

Decode

Destination Runways

ID Width Length Bearing (true) Bearing (mag) Surface Threshold Offset Overrun Length
11 148 ft / 45 m 8,018 ft / 2,444 m 106.32° 105.23° Asphalt 328 ft / 100 m 0 ft / 0 m
18 197 ft / 60 m 8,372 ft / 2,552 m 179.12° 178.03° Asphalt 197 ft / 60 m 0 ft / 0 m
29 148 ft / 45 m 8,018 ft / 2,444 m 286.36° 285.27° Asphalt 502 ft / 153 m 0 ft / 0 m
36 197 ft / 60 m 8,372 ft / 2,552 m 359.12° 358.03° Asphalt 0 ft / 0 m 0 ft / 0 m

Approach Navaids

Runway Type Ident Frequency Range Bearing (true) Bearing (mag) Slope Elevation
11 Localiser ZL 109.50 MHz 18 nm / 33 km 106.35° 105.26° - 37 ft / 11 m (AMSL)
11 Glidescope ZL 109.50 MHz 10 nm / 19 km 106.34° 105.25° 3.00° 29 ft / 9 m (AMSL)
11 DME ZL 109.50 MHz 18 nm / 33 km - - - 37 ft / 11 m (AMSL)
18 Localiser ZV 110.30 MHz 18 nm / 33 km 179.12° 178.03° - 29 ft / 9 m (AMSL)
18 Glidescope ZV 110.30 MHz 10 nm / 19 km 179.12° 178.03° 3.00° 29 ft / 9 m (AMSL)
36 Localiser SL 111.35 MHz 18 nm / 33 km 359.12° 358.03° - 79 ft / 24 m (AMSL)
36 Glidescope SL 111.35 MHz 10 nm / 19 km 359.12° 358.03° 3.00° 29 ft / 9 m (AMSL)
36 DME SL 111.35 MHz 18 nm / 33 km - - - 79 ft / 24 m (AMSL)

Popular Alternatives